Terminal Aerodrome Forecast
Issued by NWS

Home | Current Version | Previous Version | Text Only | Print | Product List | Glossary On
Versions: 1 2 3 4 5 6 7 8 9 10 11 12 13 14 15 16 17 18
000
FTUS41 KGYX 262351 AAA
TAFRKD
TAF AMD
KRKD 262351Z 2700/2724 00000KT 1/4SM FG BKN030 OVC045
      TEMPO 2700/2703 2SM BR OVC015
     FM270300 04006KT 2SM -RA BR OVC004
     FM270600 02003KT 4SM BR OVC007
     FM270900 01004KT P6SM BKN050 PROB30 2712/2718 P6SM -SN OVC050
     FM272100 36004KT P6SM OVC250
      AMD LTD TO CLD VIS AND WIND=

USA.gov is the U.S. government's official web portal to all federal, state and local government web resources and services.